KHBI

Asheboro Regional Airport

Asheboro, North Carolina, USA
METAR KHBI 182325Z AUTO 02003KT 10SM -RA SCT060 SCT075 OVC095 25/24 A2994 RMK AO2 P0001 T02510241
Observed Flight Rules
Aug-18 @ 23:25 UTC (22 minutes ago) Visual Flight Rules
Wind Visibility Clouds Conditions
20° at 3 knots 10 miles
  • Scattered at 6,000' AGL
  • Scattered at 7,500' AGL
  • Overcast at 9,500' AGL
  • Light Rain
Temperatures Readings Precipitation
Current 25°C / 77°F
Dewpoint 24°C / 75°F
Humidity 94%
Altimeter 29.94" Hg
Pressure 1014 hPa
Elevation 205
Current Rain 0.01
METAR KHBI 182325Z AUTO 02003KT 10SM -RA SCT060 SCT075 OVC095 25/24 A2994 RMK AO2 P0001 T02510241
Observed Flight Rules
Aug-18 @ 23:25 UTC
(22 minutes ago)
VFR
Wind Visibility
20° at 3 knots 10 miles
Clouds
  • Scattered at 6,000' AGL
  • Scattered at 7,500' AGL
  • Overcast at 9,500' AGL
Conditions
  • Light Rain
Temperature Dewpoint
25°C / 77°F 24°C / 75°F
Humidity Altimeter Pressure
94% 29.94" Hg 1014 hPa
Current Rain
0.01